Terminal Aerodrome Forecast
Issued by NWS Wakefield, VA

Home | Current Version | Previous Version | Text Only | Print | Product List | Glossary On
Versions: 1 2 3 4 5 6 7 8 9 10 11 12
000
FTUS41 KAKQ 180500
TAFSBY
TAF
KSBY 180520Z 1806/1906 00000KT P6SM SCT050
     FM181000 00000KT 5SM BR SCT250
     FM181300 07005KT P6SM SCT050 SCT250
     FM182000 13007KT P6SM BKN070=

USA.gov is the U.S. government's official web portal to all federal, state and local government web resources and services.